Pisces Leader — HPCT — position and weather

sailwx.info

Track history (hours):
 
Tides and Currents Weather Stations Pressure Air Temp Water Temp Dewpoint Dewpoint Depression Visibility Wind Speed Wind Dir Waves Ship Positions

Pisces Leader

Last reported at 2018-Jan-23 23:30 UTC. Time now 2018-Jan-23 23:52 UTC.
Position N 35°18' E 139°45'.

Length 199 m; draft 8.5 m.

Type: Cargo ship. MMSI: 353987000.

Date/timePositionNaut miles runAvg speedWind from/ knotsBaromVisibWave heightAir tempDewpointWater temp
2018-Jan-23 23:30N 35°18' E 139°45'611.9
2018-Jan-23 23:00N 35°13' E 139°47'5 9.1
2018-Jan-23 22:30N 35°08' E 139°46'612.4
2018-Jan-23 22:00N 35°03' E 139°42'510.1
2018-Jan-23 21:29N 34°58' E 139°39'5 9.8
2018-Jan-23 21:00N 34°54' E 139°37'612.0
2018-Jan-23 20:30N 34°48' E 139°36'612.2
2018-Jan-23 20:00N 34°43' E 139°40'3 6.2
2018-Jan-23 19:28N 34°43' E 139°44'1 3.1
2018-Jan-23 18:59N 34°44' E 139°42'1 3.1
2018-Jan-23 18:30N 34°44' E 139°41'2 2.9
2018-Jan-23 17:59N 34°45' E 139°39'1 2.5
2018-Jan-23 17:26N 34°45' E 139°37'1 2.4
2018-Jan-23 17:00N 34°45' E 139°36'1 2.5
2018-Jan-23 16:30N 34°45' E 139°34'6 9.2
2018-Jan-23 15:49N 34°40' E 139°30'410.8
2018-Jan-23 15:30N 34°37' E 139°27'714.6
2018-Jan-23 15:00N 34°37' E 139°19'817.0
2018-Jan-23 14:30N 34°33' E 139°09'919.0
2018-Jan-23 14:00N 34°29' E 138°59'918.7
2018-Jan-23 13:30N 34°28' E 138°47'1019.1
2018-Jan-23 12:59N 34°27' E 138°36'1018.3
2018-Jan-23 12:28N 34°26' E 138°24'1017.8
2018-Jan-23 11:53N 34°26' E 138°12'917.1
2018-Jan-23 11:22N 34°27' E 138°01'616.5
2018-Jan-23 10:59N 34°27' E 137°53'2116.3
2018-Jan-23 09:41N 34°29' E 137°28'316.8
2018-Jan-23 09:30N 34°29' E 137°24'816.4
2018-Jan-23 08:59N 34°30' E 137°14'815.4
2018-Jan-23 08:30N 34°30' E 137°05'510.3
2018-Jan-23 08:00N 34°34' E 136°60'6 9.2
2018-Jan-23 07:21N 34°40' E 137°02'515.4
2018-Jan-23 07:00N 34°42' E 137°08'711.5
2018-Jan-23 06:24N 34°47' E 137°13'1 0.1
2018-Jan-22 22:17N 34°48' E 137°13'0 0.8
2018-Jan-22 21:57N 34°48' E 137°13'4 7.5
2018-Jan-22 21:29N 34°45' E 137°12'510.1
2018-Jan-22 21:00N 34°42' E 137°07'611.1
2018-Jan-22 20:30N 34°39' E 137°01'5 9.3
2018-Jan-22 20:00N 34°35' E 136°59'611.3
2018-Jan-22 19:29N 34°30' E 137°04'  
Track history (hours):
 
Tides and Currents Weather Stations Pressure Air Temp Water Temp Dewpoint Dewpoint Depression Visibility Wind Speed Wind Dir Waves Ship Positions

Pisces Leader

Last reported at 2018-Jan-23 23:30 UTC. Time now 2018-Jan-23 23:52 UTC.
Position N 35°18' E 139°45'.

Length 199 m; draft 8.5 m.

Type: Cargo ship. MMSI: 353987000.

Date/timePositionNaut miles runAvg speedWind from/ knotsBaromVisibWave heightAir tempDewpointWater temp
2018-Jan-23 23:30N 35°18' E 139°45'611.9
2018-Jan-23 23:00N 35°13' E 139°47'5 9.1
2018-Jan-23 22:30N 35°08' E 139°46'612.4
2018-Jan-23 22:00N 35°03' E 139°42'510.1
2018-Jan-23 21:29N 34°58' E 139°39'5 9.8
2018-Jan-23 21:00N 34°54' E 139°37'612.0
2018-Jan-23 20:30N 34°48' E 139°36'612.2
2018-Jan-23 20:00N 34°43' E 139°40'3 6.2
2018-Jan-23 19:28N 34°43' E 139°44'1 3.1
2018-Jan-23 18:59N 34°44' E 139°42'1 3.1
2018-Jan-23 18:30N 34°44' E 139°41'2 2.9
2018-Jan-23 17:59N 34°45' E 139°39'1 2.5
2018-Jan-23 17:26N 34°45' E 139°37'1 2.4
2018-Jan-23 17:00N 34°45' E 139°36'1 2.5
2018-Jan-23 16:30N 34°45' E 139°34'6 9.2
2018-Jan-23 15:49N 34°40' E 139°30'410.8
2018-Jan-23 15:30N 34°37' E 139°27'714.6
2018-Jan-23 15:00N 34°37' E 139°19'817.0
2018-Jan-23 14:30N 34°33' E 139°09'919.0
2018-Jan-23 14:00N 34°29' E 138°59'918.7
2018-Jan-23 13:30N 34°28' E 138°47'1019.1
2018-Jan-23 12:59N 34°27' E 138°36'1018.3
2018-Jan-23 12:28N 34°26' E 138°24'1017.8
2018-Jan-23 11:53N 34°26' E 138°12'917.1
2018-Jan-23 11:22N 34°27' E 138°01'616.5
2018-Jan-23 10:59N 34°27' E 137°53'2116.3
2018-Jan-23 09:41N 34°29' E 137°28'316.8
2018-Jan-23 09:30N 34°29' E 137°24'816.4
2018-Jan-23 08:59N 34°30' E 137°14'815.4
2018-Jan-23 08:30N 34°30' E 137°05'510.3
2018-Jan-23 08:00N 34°34' E 136°60'6 9.2
2018-Jan-23 07:21N 34°40' E 137°02'515.4
2018-Jan-23 07:00N 34°42' E 137°08'711.5
2018-Jan-23 06:24N 34°47' E 137°13'1 0.1
2018-Jan-22 22:17N 34°48' E 137°13'0 0.8
2018-Jan-22 21:57N 34°48' E 137°13'4 7.5
2018-Jan-22 21:29N 34°45' E 137°12'510.1
2018-Jan-22 21:00N 34°42' E 137°07'611.1
2018-Jan-22 20:30N 34°39' E 137°01'5 9.3
2018-Jan-22 20:00N 34°35' E 136°59'611.3
2018-Jan-22 19:29N 34°30' E 137°04'  

Dump ship's entire track history